Palmdale, California
Current Conditions -  °F | °C
As of 7:53 PM on Wednesday 22 Oct 2014 (Local Time) from KPMD Reporting Station
Clear Clear  
Wind Chill: 67°   Ceiling: Unl
Heat Index: 67°   Visibility: 10mi
Dew Point: 31°   Wind: 7mph
Humidity: 26%   Direction: 200°SSW
Pressure: 30.04"   Gusts: NA
Location:  34.58°N, 118.11°W
Report Text: KPMD 230253Z AUTO 20006KT 10SM CLR 19/M01 A3004 RMK AO2 SLP159 T01941006 53010 TSNO
Loading
Personal Weather Stations






























Interactive Weather Map
Tropical Storm Tracking
New forecast layout! Learn more

10-Day Weather Forecast

Advertisements
Track Severe Weather on mobile